createdAt,value
2018-10-05T00:00:12.489Z,4.00
2018-10-05T00:02:49.848Z,4.00
2018-10-05T00:05:27.388Z,4.00
2018-10-05T00:08:04.864Z,4.10
2018-10-05T00:10:42.164Z,4.00
2018-10-05T00:13:19.633Z,4.00
2018-10-05T00:15:57.254Z,4.00
2018-10-05T00:18:34.876Z,4.00
2018-10-05T00:21:13.753Z,4.00
2018-10-05T00:23:51.152Z,4.00
2018-10-05T00:26:29.464Z,3.90
2018-10-05T00:29:09.572Z,3.80
2018-10-05T00:31:46.920Z,3.90
2018-10-05T00:34:28.413Z,3.80
2018-10-05T00:37:06.181Z,3.80
2018-10-05T00:39:43.595Z,3.80
2018-10-05T00:42:21.408Z,3.80
2018-10-05T00:44:58.804Z,3.80
2018-10-05T00:47:36.409Z,3.80
2018-10-05T00:50:13.672Z,3.70
2018-10-05T00:52:51.201Z,3.70
2018-10-05T00:55:28.900Z,3.70
2018-10-05T00:58:06.264Z,3.70
2018-10-05T01:00:43.859Z,3.60
2018-10-05T01:03:21.245Z,3.40
2018-10-05T01:05:58.817Z,3.40
2018-10-05T01:08:36.288Z,3.40
2018-10-05T01:11:13.894Z,3.40
2018-10-05T01:13:51.223Z,3.40
2018-10-05T01:16:28.673Z,3.40
2018-10-05T01:19:06.562Z,3.30
2018-10-05T01:21:44.051Z,3.30
2018-10-05T01:24:21.596Z,3.40
2018-10-05T01:26:59.054Z,3.30
2018-10-05T01:29:36.574Z,3.30
2018-10-05T01:32:13.931Z,3.20
2018-10-05T01:34:51.183Z,3.20
2018-10-05T01:37:29.036Z,3.20
2018-10-05T01:40:06.120Z,3.10
2018-10-05T01:42:43.392Z,3.10
2018-10-05T01:45:21.294Z,3.10
2018-10-05T01:47:58.256Z,3.10
2018-10-05T01:50:35.388Z,3.10
2018-10-05T01:53:12.400Z,3.10
2018-10-05T01:55:49.396Z,3.10
2018-10-05T01:58:26.496Z,3.00
2018-10-05T02:01:04.276Z,2.90
2018-10-05T02:03:41.342Z,3.00
2018-10-05T02:06:18.672Z,3.00
2018-10-05T02:08:55.934Z,3.00
2018-10-05T02:11:33.720Z,3.00
2018-10-05T02:14:10.753Z,3.00
2018-10-05T02:16:47.788Z,3.00
2018-10-05T02:19:25.120Z,2.90
2018-10-05T02:22:02.026Z,3.00
2018-10-05T02:24:39.414Z,2.90
2018-10-05T02:27:16.775Z,2.90
2018-10-05T02:29:54.162Z,2.90
2018-10-05T02:32:31.589Z,2.90
2018-10-05T02:35:09.016Z,2.80
2018-10-05T02:37:46.123Z,2.70
2018-10-05T02:40:23.134Z,2.60
2018-10-05T02:43:00.444Z,2.60
2018-10-05T02:45:37.566Z,2.60
2018-10-05T02:48:14.788Z,2.60
2018-10-05T02:50:51.946Z,2.60
2018-10-05T02:53:29.428Z,2.50
2018-10-05T02:56:06.820Z,2.50
2018-10-05T02:58:44.046Z,2.50
2018-10-05T03:01:31.948Z,2.50
2018-10-05T03:04:09.190Z,2.50
2018-10-05T03:06:46.333Z,2.60
2018-10-05T03:09:23.596Z,2.60
2018-10-05T03:12:00.689Z,2.60
2018-10-05T03:14:38.008Z,2.60
2018-10-05T03:17:15.277Z,2.50
2018-10-05T03:19:52.574Z,2.50
2018-10-05T03:22:29.630Z,2.50
2018-10-05T03:25:07.336Z,2.50
2018-10-05T03:27:44.405Z,2.40
2018-10-05T03:30:21.433Z,2.30
2018-10-05T03:32:58.485Z,2.30
2018-10-05T03:35:35.721Z,2.30
2018-10-05T03:38:12.888Z,2.30
2018-10-05T03:40:49.970Z,2.30
2018-10-05T03:43:27.168Z,2.30
2018-10-05T03:46:04.402Z,2.30
2018-10-05T03:48:41.759Z,2.30
2018-10-05T03:51:19.256Z,2.30
2018-10-05T03:53:56.255Z,2.20
2018-10-05T03:56:33.641Z,2.30
2018-10-05T03:59:11.105Z,2.30
2018-10-05T04:01:48.473Z,2.30
2018-10-05T04:04:25.683Z,2.30
2018-10-05T04:07:03.185Z,2.30
2018-10-05T04:09:40.471Z,2.30
2018-10-05T04:12:17.808Z,2.30
2018-10-05T04:14:55.213Z,2.30
2018-10-05T04:17:32.462Z,2.30
2018-10-05T04:20:09.945Z,2.30
2018-10-05T04:22:47.225Z,2.20
2018-10-05T04:25:24.606Z,2.20
2018-10-05T04:28:01.998Z,2.20
2018-10-05T04:30:39.801Z,2.20
2018-10-05T04:33:17.390Z,2.20
2018-10-05T04:35:54.764Z,2.20
2018-10-05T04:38:32.115Z,2.30
2018-10-05T04:41:09.712Z,2.20
2018-10-05T04:43:47.197Z,2.20
2018-10-05T04:46:24.708Z,2.20
2018-10-05T04:49:02.250Z,2.20
2018-10-05T04:51:39.906Z,2.20
2018-10-05T04:54:17.100Z,2.20
2018-10-05T04:56:55.078Z,2.10
2018-10-05T04:59:32.934Z,2.10
2018-10-05T05:02:10.288Z,2.10
2018-10-05T05:04:47.634Z,2.10
2018-10-05T05:07:27.449Z,2.10
2018-10-05T05:10:05.550Z,2.20
2018-10-05T05:12:42.990Z,2.20
2018-10-05T05:15:20.998Z,2.10
2018-10-05T05:17:58.461Z,2.10
2018-10-05T05:20:35.801Z,2.10
2018-10-05T05:23:12.864Z,2.10
2018-10-05T05:25:50.161Z,2.10
2018-10-05T05:28:29.728Z,2.10
2018-10-05T05:31:07.844Z,2.10
2018-10-05T05:33:45.257Z,2.20
2018-10-05T05:36:22.604Z,2.10
2018-10-05T05:39:00.378Z,2.20
2018-10-05T05:41:37.972Z,2.20
2018-10-05T05:44:15.449Z,2.20
2018-10-05T05:46:53.100Z,2.20
2018-10-05T05:49:30.234Z,2.40
2018-10-05T05:52:08.438Z,2.50
2018-10-05T05:54:45.319Z,2.60
2018-10-05T05:57:22.761Z,2.80
2018-10-05T05:59:59.988Z,2.80
2018-10-05T06:02:37.704Z,2.80
2018-10-05T06:05:15.088Z,2.80
2018-10-05T06:07:52.810Z,2.80
2018-10-05T06:10:30.364Z,2.90
2018-10-05T06:13:07.824Z,2.90
2018-10-05T06:15:45.244Z,3.00
2018-10-05T06:18:23.030Z,3.00
2018-10-05T06:21:00.440Z,3.10
2018-10-05T06:23:38.152Z,3.20
2018-10-05T06:26:15.578Z,3.50
2018-10-05T06:28:52.762Z,3.90
2018-10-05T06:31:30.306Z,4.00
2018-10-05T06:34:08.342Z,3.90
2018-10-05T06:36:45.843Z,3.90
2018-10-05T06:39:23.224Z,4.00
2018-10-05T06:42:00.890Z,4.00
2018-10-05T06:44:38.440Z,4.10
2018-10-05T06:47:15.602Z,4.10
2018-10-05T06:49:53.160Z,4.20
2018-10-05T06:52:30.620Z,4.40
2018-10-05T06:55:08.530Z,4.60
2018-10-05T06:57:46.164Z,4.80
2018-10-05T07:00:24.364Z,5.00
2018-10-05T07:03:01.451Z,5.10
2018-10-05T07:05:38.723Z,5.30
2018-10-05T07:08:16.152Z,5.50
2018-10-05T07:10:53.936Z,5.70
2018-10-05T07:13:31.090Z,5.70
2018-10-05T07:16:08.726Z,5.90
2018-10-05T07:18:46.125Z,6.10
2018-10-05T07:21:23.792Z,6.30
2018-10-05T07:24:02.136Z,6.40
2018-10-05T07:26:39.559Z,6.60
2018-10-05T07:29:16.703Z,6.70
2018-10-05T07:31:54.092Z,6.80
2018-10-05T07:34:31.397Z,7.00
2018-10-05T07:37:08.984Z,7.30
2018-10-05T07:39:46.921Z,7.50
2018-10-05T07:42:25.164Z,7.70
2018-10-05T07:45:02.632Z,7.90
2018-10-05T07:47:40.574Z,8.20
2018-10-05T07:50:18.037Z,8.40
2018-10-05T07:52:56.646Z,8.70
2018-10-05T07:55:33.624Z,8.90
2018-10-05T07:58:10.782Z,9.10
2018-10-05T08:00:48.352Z,9.20
2018-10-05T08:03:25.855Z,9.50
2018-10-05T08:06:03.029Z,9.70
2018-10-05T08:08:41.015Z,10.20
2018-10-05T08:11:18.833Z,11.10
2018-10-05T08:13:56.367Z,12.00
2018-10-05T08:16:33.534Z,12.80
2018-10-05T08:19:11.353Z,13.60
2018-10-05T08:21:48.604Z,14.20
2018-10-05T08:24:26.121Z,14.70
2018-10-05T08:27:03.534Z,15.10
2018-10-05T08:29:40.832Z,15.40
2018-10-05T08:32:18.050Z,15.80
2018-10-05T08:34:55.680Z,16.20
2018-10-05T08:37:32.873Z,16.40
2018-10-05T08:40:10.970Z,16.80
2018-10-05T08:42:48.411Z,17.10
2018-10-05T08:45:26.923Z,17.50
2018-10-05T08:48:04.484Z,17.60
2018-10-05T08:50:41.974Z,17.80
2018-10-05T08:53:19.319Z,18.00
2018-10-05T08:55:56.698Z,18.20
2018-10-05T08:58:34.000Z,18.40
2018-10-05T09:01:11.764Z,18.60
2018-10-05T09:03:48.922Z,18.80
2018-10-05T09:06:26.938Z,19.00
2018-10-05T09:09:06.252Z,19.20
2018-10-05T09:11:44.077Z,19.30
2018-10-05T09:14:22.414Z,19.50
2018-10-05T09:17:01.258Z,19.70
2018-10-05T09:19:39.060Z,19.60
2018-10-05T09:22:17.109Z,19.60
2018-10-05T09:24:55.636Z,19.80
2018-10-05T09:27:33.538Z,19.90
2018-10-05T09:30:11.463Z,20.00
2018-10-05T09:32:49.587Z,20.10
2018-10-05T09:35:27.427Z,20.30
2018-10-05T09:38:05.357Z,20.70
2018-10-05T09:40:43.631Z,21.00
2018-10-05T09:43:21.295Z,21.20
2018-10-05T09:45:59.284Z,21.00
2018-10-05T09:48:37.169Z,21.00
2018-10-05T09:51:15.152Z,20.90
2018-10-05T09:53:53.048Z,20.90
2018-10-05T09:56:30.986Z,21.10
2018-10-05T09:59:08.809Z,21.10
2018-10-05T10:01:57.965Z,21.20
2018-10-05T10:04:36.111Z,21.20
2018-10-05T10:07:14.055Z,21.10
2018-10-05T10:09:51.982Z,21.20
2018-10-05T10:12:29.772Z,21.20
2018-10-05T10:15:08.378Z,21.30
2018-10-05T10:17:46.152Z,21.40
2018-10-05T10:20:23.857Z,21.50
2018-10-05T10:23:01.738Z,21.30
2018-10-05T10:25:40.143Z,21.50
2018-10-05T10:28:18.459Z,21.40
2018-10-05T10:30:56.872Z,21.20
2018-10-05T10:33:34.854Z,21.00
2018-10-05T10:36:13.188Z,20.80
2018-10-05T10:38:51.260Z,20.70
2018-10-05T10:41:29.298Z,20.90
2018-10-05T10:44:07.243Z,21.00
2018-10-05T10:46:45.381Z,21.20
2018-10-05T10:49:23.341Z,21.30
2018-10-05T10:52:01.312Z,21.40
2018-10-05T10:54:38.934Z,21.40
2018-10-05T10:57:17.175Z,21.40
2018-10-05T10:59:55.640Z,21.30
2018-10-05T11:02:34.064Z,21.30
2018-10-05T11:05:11.815Z,21.40
2018-10-05T11:07:50.391Z,21.50
2018-10-05T11:10:28.891Z,21.60
2018-10-05T11:13:06.880Z,21.90
2018-10-05T11:15:44.804Z,21.90
2018-10-05T11:18:22.647Z,22.30
2018-10-05T11:21:00.818Z,22.30
2018-10-05T11:23:38.511Z,22.30
2018-10-05T11:26:16.656Z,22.30
2018-10-05T11:28:54.634Z,22.40
2018-10-05T11:31:32.804Z,22.60
2018-10-05T11:34:11.284Z,22.50
2018-10-05T11:36:49.264Z,22.40
2018-10-05T11:39:27.406Z,22.40
2018-10-05T11:42:05.465Z,22.30
2018-10-05T11:44:43.297Z,22.60
2018-10-05T11:47:21.634Z,22.80
2018-10-05T11:49:59.638Z,23.00
2018-10-05T11:52:38.035Z,23.00
2018-10-05T11:55:15.804Z,22.80
2018-10-05T11:57:53.872Z,22.80
2018-10-05T12:00:32.074Z,22.80
2018-10-05T12:03:10.346Z,22.80
2018-10-05T12:05:48.525Z,22.80
2018-10-05T12:08:26.320Z,22.80
2018-10-05T12:11:04.464Z,22.90
2018-10-05T12:13:42.268Z,22.90
2018-10-05T12:16:20.682Z,23.10
2018-10-05T12:18:58.587Z,23.10
2018-10-05T12:21:36.622Z,23.20
2018-10-05T12:24:14.996Z,23.40
2018-10-05T12:26:53.176Z,23.50
2018-10-05T12:29:30.987Z,23.40
2018-10-05T12:32:10.309Z,23.40
2018-10-05T12:34:48.360Z,23.50
2018-10-05T12:37:26.535Z,23.40
2018-10-05T12:40:04.491Z,23.40
2018-10-05T12:42:42.544Z,23.30
2018-10-05T12:45:20.542Z,23.30
2018-10-05T12:47:58.620Z,23.10
2018-10-05T12:50:36.834Z,23.30
2018-10-05T12:53:15.360Z,23.20
2018-10-05T12:55:53.747Z,23.30
2018-10-05T12:58:31.702Z,23.20
2018-10-05T13:01:10.184Z,23.40
2018-10-05T13:03:48.090Z,23.50
2018-10-05T13:06:26.476Z,23.50
2018-10-05T13:09:05.311Z,23.40
2018-10-05T13:11:43.700Z,23.50
2018-10-05T13:14:22.272Z,23.60
2018-10-05T13:17:01.284Z,23.50
2018-10-05T13:19:39.357Z,23.60
2018-10-05T13:22:17.450Z,23.80
2018-10-05T13:24:55.667Z,23.80
2018-10-05T13:27:34.104Z,23.70
2018-10-05T13:30:11.921Z,23.70
2018-10-05T13:32:49.851Z,23.80
2018-10-05T13:35:27.809Z,23.50
2018-10-05T13:38:05.865Z,23.60
2018-10-05T13:40:44.160Z,23.50
2018-10-05T13:43:22.046Z,23.30
2018-10-05T13:46:00.271Z,23.30
2018-10-05T13:48:38.460Z,23.00
2018-10-05T13:51:16.394Z,23.00
2018-10-05T13:53:55.750Z,22.90
2018-10-05T13:56:34.502Z,22.90
2018-10-05T13:59:26.296Z,23.10
2018-10-05T14:02:04.572Z,23.20
2018-10-05T14:04:43.174Z,23.10
2018-10-05T14:07:21.532Z,22.80
2018-10-05T14:09:59.645Z,22.50
2018-10-05T14:12:38.261Z,22.40
2018-10-05T14:15:17.872Z,22.40
2018-10-05T14:17:55.769Z,22.20
2018-10-05T14:20:34.352Z,22.10
2018-10-05T14:23:13.549Z,22.20
2018-10-05T14:25:52.018Z,22.30
2018-10-05T14:28:30.032Z,22.10
2018-10-05T14:31:07.893Z,22.10
2018-10-05T14:33:45.879Z,22.00
2018-10-05T14:36:24.452Z,21.90
2018-10-05T14:39:03.061Z,21.90
2018-10-05T14:41:41.122Z,22.00
2018-10-05T14:44:19.222Z,21.90
2018-10-05T14:46:57.834Z,21.60
2018-10-05T14:49:36.000Z,21.60
2018-10-05T14:52:18.288Z,21.40
2018-10-05T14:54:56.769Z,21.20
2018-10-05T14:57:34.535Z,21.00
2018-10-05T15:00:12.965Z,21.00
2018-10-05T15:02:50.926Z,21.00
2018-10-05T15:05:28.932Z,20.90
2018-10-05T15:08:06.726Z,20.80
2018-10-05T15:10:44.743Z,20.70
2018-10-05T15:13:22.896Z,20.40
2018-10-05T15:16:00.864Z,20.20
2018-10-05T15:18:39.298Z,20.00
2018-10-05T15:21:17.312Z,19.80
2018-10-05T15:23:55.316Z,19.50
2018-10-05T15:26:33.282Z,19.30
2018-10-05T15:29:11.636Z,19.20
2018-10-05T15:31:49.734Z,19.10
2018-10-05T15:34:27.580Z,19.00
2018-10-05T15:37:05.796Z,18.90
2018-10-05T15:39:43.542Z,18.80
2018-10-05T15:42:21.447Z,18.60
2018-10-05T15:44:58.611Z,18.50
2018-10-05T15:47:36.710Z,18.30
2018-10-05T15:50:14.737Z,18.10
2018-10-05T15:52:53.493Z,18.10
2018-10-05T15:55:31.134Z,18.00
2018-10-05T15:58:08.790Z,17.70
2018-10-05T16:00:46.022Z,17.30
2018-10-05T16:03:23.578Z,16.90
2018-10-05T16:06:01.216Z,16.60
2018-10-05T16:08:38.716Z,16.20
2018-10-05T16:11:15.988Z,15.90
2018-10-05T16:13:53.611Z,15.50
2018-10-05T16:16:31.241Z,15.30
2018-10-05T16:19:09.108Z,15.00
2018-10-05T16:21:46.912Z,14.70
2018-10-05T16:24:35.716Z,14.60
2018-10-05T16:27:13.909Z,14.50
2018-10-05T16:29:51.274Z,14.40
2018-10-05T16:32:28.920Z,14.20
2018-10-05T16:35:06.882Z,14.00
2018-10-05T16:37:44.199Z,13.90
2018-10-05T16:40:21.541Z,13.70
2018-10-05T16:42:58.929Z,13.60
2018-10-05T16:45:36.226Z,13.50
2018-10-05T16:48:13.758Z,13.30
2018-10-05T16:50:51.099Z,13.20
2018-10-05T16:53:29.031Z,13.10
2018-10-05T16:56:06.352Z,13.00
2018-10-05T16:58:43.672Z,12.90
2018-10-05T17:01:20.968Z,12.70
2018-10-05T17:03:58.421Z,12.60
2018-10-05T17:06:35.924Z,12.50
2018-10-05T17:09:13.922Z,12.50
2018-10-05T17:11:51.341Z,12.40
2018-10-05T17:14:28.770Z,12.40
2018-10-05T17:17:06.104Z,12.30
2018-10-05T17:19:43.536Z,12.20
2018-10-05T17:22:21.417Z,12.10
2018-10-05T17:24:58.796Z,12.00
2018-10-05T17:27:36.060Z,11.90
2018-10-05T17:30:13.202Z,12.00
2018-10-05T17:32:50.726Z,12.00
2018-10-05T17:35:28.372Z,12.00
2018-10-05T17:38:06.130Z,12.00
2018-10-05T17:40:44.308Z,11.90
2018-10-05T17:43:21.624Z,11.80
2018-10-05T17:45:59.410Z,11.60
2018-10-05T17:48:36.966Z,11.50
2018-10-05T17:51:14.361Z,11.40
2018-10-05T17:53:52.341Z,11.50
2018-10-05T17:56:29.702Z,11.60
2018-10-05T17:59:07.787Z,11.50
2018-10-05T18:01:45.132Z,11.40
2018-10-05T18:04:23.514Z,11.20
2018-10-05T18:07:00.862Z,11.00
2018-10-05T18:09:38.541Z,10.90
2018-10-05T18:12:16.612Z,10.80
2018-10-05T18:14:54.244Z,10.80
2018-10-05T18:17:31.802Z,10.90
2018-10-05T18:20:09.684Z,10.80
2018-10-05T18:22:47.337Z,10.80
2018-10-05T18:25:25.370Z,10.80
2018-10-05T18:28:02.706Z,10.80
2018-10-05T18:30:40.616Z,10.70
2018-10-05T18:33:18.786Z,10.70
2018-10-05T18:35:56.024Z,10.70
2018-10-05T18:38:33.662Z,10.60
2018-10-05T18:41:12.649Z,10.40
2018-10-05T18:43:50.286Z,10.30
2018-10-05T18:46:28.208Z,10.10
2018-10-05T18:49:06.175Z,10.00
2018-10-05T18:51:43.905Z,9.90
2018-10-05T18:54:21.136Z,9.80
2018-10-05T18:57:09.328Z,9.80
2018-10-05T18:59:46.740Z,9.60
2018-10-05T19:02:24.552Z,9.60
2018-10-05T19:05:02.107Z,9.50
2018-10-05T19:07:39.699Z,9.50
2018-10-05T19:10:17.432Z,9.50
2018-10-05T19:12:54.794Z,9.60
2018-10-05T19:15:32.606Z,9.60
2018-10-05T19:18:10.365Z,9.60
2018-10-05T19:20:47.692Z,9.70
2018-10-05T19:23:25.484Z,9.60
2018-10-05T19:26:03.254Z,9.60
2018-10-05T19:28:40.947Z,9.50
2018-10-05T19:31:19.180Z,9.40
2018-10-05T19:33:56.554Z,9.30
2018-10-05T19:36:33.862Z,9.20
2018-10-05T19:39:12.360Z,9.00
2018-10-05T19:41:49.774Z,8.90
2018-10-05T19:44:27.568Z,8.90
2018-10-05T19:47:05.236Z,9.00
2018-10-05T19:49:42.642Z,9.00
2018-10-05T19:52:19.916Z,9.00
2018-10-05T19:54:57.753Z,9.00
2018-10-05T19:57:35.098Z,9.00
2018-10-05T20:00:12.404Z,8.90
2018-10-05T20:02:49.841Z,8.70
2018-10-05T20:05:27.105Z,8.50
2018-10-05T20:08:04.427Z,8.40
2018-10-05T20:10:42.426Z,8.30
2018-10-05T20:13:19.956Z,8.40
2018-10-05T20:15:57.222Z,8.40
2018-10-05T20:18:35.284Z,8.40
2018-10-05T20:21:13.748Z,8.40
2018-10-05T20:23:50.831Z,8.40
2018-10-05T20:26:27.967Z,8.30
2018-10-05T20:29:05.437Z,8.30
2018-10-05T20:31:42.619Z,8.20
2018-10-05T20:34:20.131Z,8.20
2018-10-05T20:36:57.437Z,8.10
2018-10-05T20:39:34.920Z,8.10
2018-10-05T20:42:12.567Z,8.20
2018-10-05T20:44:50.361Z,8.30
2018-10-05T20:47:27.783Z,8.60
2018-10-05T20:50:05.761Z,9.00
2018-10-05T20:52:43.053Z,9.20
2018-10-05T20:55:20.424Z,9.20
2018-10-05T20:57:57.704Z,9.30
2018-10-05T21:00:35.501Z,9.40
2018-10-05T21:03:12.926Z,9.40
2018-10-05T21:05:49.981Z,9.30
2018-10-05T21:08:27.530Z,9.10
2018-10-05T21:11:05.018Z,9.10
2018-10-05T21:13:42.328Z,9.20
2018-10-05T21:16:19.523Z,9.10
2018-10-05T21:18:57.050Z,9.10
2018-10-05T21:21:34.464Z,9.10
2018-10-05T21:24:12.065Z,9.10
2018-10-05T21:26:49.649Z,9.20
2018-10-05T21:29:27.154Z,9.20
2018-10-05T21:32:04.756Z,9.30
2018-10-05T21:34:42.735Z,9.30
2018-10-05T21:37:19.997Z,9.30
2018-10-05T21:39:57.335Z,9.30
2018-10-05T21:42:35.208Z,9.20
2018-10-05T21:45:12.468Z,9.00
2018-10-05T21:47:50.131Z,8.90
2018-10-05T21:50:27.522Z,8.80
2018-10-05T21:53:04.749Z,8.80
2018-10-05T21:55:42.363Z,9.00
2018-10-05T21:58:20.534Z,9.00
2018-10-05T22:00:58.514Z,9.10
2018-10-05T22:03:36.504Z,9.20
2018-10-05T22:06:13.962Z,9.20
2018-10-05T22:08:51.228Z,9.20
2018-10-05T22:11:28.467Z,9.30
2018-10-05T22:14:05.873Z,9.30
2018-10-05T22:16:43.132Z,9.40
2018-10-05T22:19:20.336Z,9.40
2018-10-05T22:21:57.448Z,9.40
2018-10-05T22:24:34.630Z,9.30
2018-10-05T22:27:11.908Z,9.30
2018-10-05T22:29:49.481Z,9.20
2018-10-05T22:32:26.807Z,9.00
2018-10-05T22:35:04.419Z,9.10
2018-10-05T22:37:41.525Z,9.10
2018-10-05T22:40:18.656Z,9.10
2018-10-05T22:42:56.404Z,9.30
2018-10-05T22:45:34.004Z,9.50
2018-10-05T22:48:11.194Z,9.70
2018-10-05T22:50:48.456Z,9.70
2018-10-05T22:53:26.112Z,9.70
2018-10-05T22:56:03.250Z,9.70
2018-10-05T22:58:40.622Z,9.70
2018-10-05T23:01:17.824Z,9.70
2018-10-05T23:03:55.266Z,9.80
2018-10-05T23:06:32.411Z,9.80
2018-10-05T23:09:10.302Z,9.90
2018-10-05T23:11:48.058Z,9.80
2018-10-05T23:14:25.288Z,9.80
2018-10-05T23:17:02.594Z,10.00
2018-10-05T23:19:39.817Z,10.00
2018-10-05T23:22:18.010Z,10.00
2018-10-05T23:24:55.120Z,9.80
2018-10-05T23:27:32.188Z,9.60
2018-10-05T23:30:09.594Z,9.40
2018-10-05T23:32:46.637Z,9.40
2018-10-05T23:35:24.130Z,9.30
2018-10-05T23:38:01.093Z,9.10
2018-10-05T23:40:38.039Z,9.00
2018-10-05T23:43:15.158Z,9.00
2018-10-05T23:45:52.217Z,8.90
2018-10-05T23:48:29.337Z,8.80
2018-10-05T23:51:06.568Z,8.70
2018-10-05T23:53:43.597Z,8.70
2018-10-05T23:56:20.439Z,8.60
2018-10-05T23:58:57.661Z,8.50
